Time;durP1;ratioP1;P1;durP2;ratioP2;P2;SDS_P1;SDS_P2;PMS_P1;PMS_P2;Temp;Humidity;BMP_temperature;BMP_pressure;BME280_temperature;BME280_humidity;BME280_pressure;Samples;Min_cycle;Max_cycle;Signal;HPM_P1;HPM_P2
2021/03/28 00:00:53;;;;;;;10.33;3.40;;;;;;;3.56;72.34;101899.44;5013989;28;20242;-82
2021/03/28 00:03:24;;;;;;;9.87;4.30;;;;;;;3.54;72.17;101896.84;5014916;28;20211;-79
2021/03/28 00:05:51;;;;;;;8.93;3.30;;;;;;;3.51;72.79;101890.72;5015943;28;20225;-79
2021/03/28 00:08:21;;;;;;;10.87;3.20;;;;;;;3.48;73.01;101895.16;5016943;28;20621;-79
2021/03/28 00:10:50;;;;;;;10.27;3.80;;;;;;;3.47;72.37;101898.69;5015114;28;20232;-79
2021/03/28 00:13:18;;;;;;;8.43;3.47;;;;;;;3.45;72.95;101905.72;5012125;28;20207;-80
2021/03/28 00:15:59;;;;;;;9.97;4.03;;;;;;;3.42;72.48;101904.88;5008617;28;20205;-79
2021/03/28 00:18:35;;;;;;;11.43;3.63;;;;;;;3.38;72.53;101898.81;5013606;28;20210;-79
2021/03/28 00:21:14;;;;;;;15.13;4.40;;;;;;;3.36;72.28;101905.00;5010934;28;20672;-81
2021/03/28 00:23:46;;;;;;;9.33;3.53;;;;;;;3.34;72.46;101912.91;5017278;28;20246;-80
2021/03/28 00:26:26;;;;;;;10.00;3.27;;;;;;;3.30;72.14;101905.94;5012431;28;20206;-80
2021/03/28 00:29:06;;;;;;;8.53;3.73;;;;;;;3.30;72.80;101905.06;5016332;28;20662;-81
2021/03/28 00:31:38;;;;;;;12.83;4.20;;;;;;;3.28;72.70;101902.44;5016420;28;20269;-81
2021/03/28 00:34:23;;;;;;;9.93;3.40;;;;;;;3.28;72.24;101907.72;5005397;28;20199;-80
2021/03/28 00:36:52;;;;;;;9.10;3.93;;;;;;;3.25;72.70;101901.63;5001407;28;20688;-79
2021/03/28 00:39:37;;;;;;;7.70;3.20;;;;;;;3.25;72.54;101902.50;5003275;28;20243;-80
2021/03/28 00:42:08;;;;;;;7.37;4.00;;;;;;;3.25;72.24;101897.22;5013015;28;20293;-80
2021/03/28 00:44:46;;;;;;;8.27;3.30;;;;;;;3.25;71.86;101906.88;5013069;28;20688;-80
2021/03/28 00:47:19;;;;;;;9.23;3.53;;;;;;;3.23;72.22;101901.63;5009805;28;20206;-81
2021/03/28 00:49:57;;;;;;;12.83;3.40;;;;;;;3.22;72.51;101909.59;5008230;28;20206;-80
2021/03/28 00:52:27;;;;;;;10.93;3.40;;;;;;;3.21;72.08;101900.81;5016841;28;20226;-80
2021/03/28 00:54:58;;;;;;;10.97;3.60;;;;;;;3.19;71.95;101902.59;5016852;28;20187;-80
2021/03/28 00:57:29;;;;;;;9.17;3.00;;;;;;;3.19;72.66;101904.34;5016806;28;20202;-80
2021/03/28 01:00:11;;;;;;;6.67;3.30;;;;;;;3.18;71.61;101906.13;5015473;28;20302;-80
2021/03/28 01:02:42;;;;;;;12.17;4.20;;;;;;;3.18;72.50;101905.25;4997149;28;20227;-80
2021/03/28 01:05:23;;;;;;;8.20;3.63;;;;;;;3.19;72.10;101902.59;5004158;28;20198;-81
2021/03/28 01:07:58;;;;;;;12.93;3.50;;;;;;;3.18;71.91;101898.22;5018137;28;21520;-81
2021/03/28 01:10:54;;;;;;;9.03;4.00;;;;;;;3.17;72.56;101893.84;5016758;28;20202;-80
2021/03/28 01:13:52;;;;;;;7.07;3.13;;;;;;;3.17;72.35;101888.56;4990414;28;20540;-80
2021/03/28 01:17:07;;;;;;;11.07;3.47;;;;;;;3.17;71.77;101885.94;5017417;28;20195;-80
2021/03/28 01:20:03;;;;;;;12.57;4.27;;;;;;;3.15;72.04;101882.44;5016887;28;20207;-81
2021/03/28 01:22:42;;;;;;;15.60;3.53;;;;;;;3.14;72.11;101883.34;5016243;28;20231;-80
2021/03/28 01:25:20;;;;;;;10.83;3.80;;;;;;;3.15;71.60;101877.19;5016906;28;20210;-80
2021/03/28 01:27:52;;;;;;;8.97;3.13;;;;;;;3.15;72.45;101874.56;5017154;28;20195;-81
2021/03/28 01:30:22;;;;;;;10.40;3.37;;;;;;;3.16;72.24;101878.06;5017577;28;20187;-81
2021/03/28 01:32:59;;;;;;;8.80;3.50;;;;;;;3.17;72.45;101877.16;5017143;28;20230;-82
2021/03/28 01:35:31;;;;;;;8.27;3.83;;;;;;;3.18;71.82;101882.41;5017525;28;20285;-81
2021/03/28 01:38:05;;;;;;;9.03;3.60;;;;;;;3.18;72.43;101874.53;5016686;28;20196;-80
2021/03/28 01:40:41;;;;;;;10.30;3.50;;;;;;;3.19;71.72;101871.00;5016003;28;20552;-79
2021/03/28 01:43:16;;;;;;;10.87;4.07;;;;;;;3.20;71.94;101879.78;5016277;28;20197;-79
2021/03/28 01:45:53;;;;;;;13.17;4.60;;;;;;;3.22;72.15;101886.75;5016622;28;20591;-81
2021/03/28 01:48:34;;;;;;;8.73;2.87;;;;;;;3.21;72.28;101881.50;5016236;28;20270;-79
2021/03/28 01:51:27;;;;;;;8.37;3.13;;;;;;;3.22;72.19;101878.00;5016256;28;20700;-79
2021/03/28 01:54:02;;;;;;;12.47;3.43;;;;;;;3.22;71.38;101873.59;5015297;28;20251;-79
2021/03/28 01:56:34;;;;;;;9.17;3.27;;;;;;;3.23;71.81;101877.06;5015164;28;20199;-80
2021/03/28 01:59:19;;;;;;;8.90;3.33;;;;;;;3.22;71.71;101875.34;5015019;28;20240;-80
2021/03/28 02:01:52;;;;;;;7.93;3.17;;;;;;;3.24;71.97;101881.44;5014638;28;20284;-79
2021/03/28 02:04:31;;;;;;;8.70;3.50;;;;;;;3.25;72.35;101875.28;5014477;28;20193;-79
2021/03/28 02:07:12;;;;;;;10.13;3.83;;;;;;;3.25;71.43;101870.91;5014967;28;20194;-79
2021/03/28 02:09:47;;;;;;;9.87;3.60;;;;;;;3.27;72.08;101871.75;5014858;28;20195;-79
2021/03/28 02:12:18;;;;;;;6.93;2.93;;;;;;;3.27;71.64;101869.13;5015735;28;20230;-79
2021/03/28 02:15:17;;;;;;;11.00;3.37;;;;;;;3.28;71.44;101868.22;5014659;28;20199;-79
2021/03/28 02:17:55;;;;;;;5.33;2.90;;;;;;;3.30;71.63;101874.34;5001114;28;20203;-79
2021/03/28 02:20:41;;;;;;;9.03;3.43;;;;;;;3.31;71.63;101869.94;5002526;28;20314;-79
2021/03/28 02:23:14;;;;;;;7.17;2.63;;;;;;;3.31;71.05;101869.94;5015168;28;20274;-79
2021/03/28 02:25:47;;;;;;;6.50;2.90;;;;;;;3.30;71.43;101858.53;5014772;28;20594;-79
2021/03/28 02:28:24;;;;;;;7.80;2.43;;;;;;;3.32;70.76;101862.03;5014332;28;20195;-79
2021/03/28 02:30:56;;;;;;;8.97;3.37;;;;;;;3.31;71.35;101857.66;5014979;28;20218;-80
2021/03/28 02:33:28;;;;;;;11.07;3.53;;;;;;;3.34;70.38;101856.75;5015572;28;20197;-79
2021/03/28 02:36:17;;;;;;;9.20;3.10;;;;;;;3.31;70.39;101849.75;5014492;28;20221;-79
2021/03/28 02:39:12;;;;;;;10.97;3.17;;;;;;;3.33;70.10;101860.28;5015070;28;20247;-78
2021/03/28 02:41:45;;;;;;;8.53;3.30;;;;;;;3.32;70.92;101845.34;5009456;28;20313;-79
2021/03/28 02:44:21;;;;;;;10.37;2.93;;;;;;;3.32;70.73;101853.25;5015810;28;20250;-78
2021/03/28 02:46:56;;;;;;;9.07;3.60;;;;;;;3.33;70.49;101863.78;5015329;28;20183;-80
2021/03/28 02:49:52;;;;;;;8.23;2.80;;;;;;;3.34;70.53;101860.25;5015790;28;20233;-79
2021/03/28 02:52:40;;;;;;;9.20;3.10;;;;;;;3.37;70.40;101867.25;5014741;28;20227;-78
2021/03/28 02:55:32;;;;;;;8.50;3.00;;;;;;;3.36;69.94;101862.88;5015249;28;20668;-78
2021/03/28 02:58:16;;;;;;;8.17;2.70;;;;;;;3.35;70.16;101864.63;5014685;28;20195;-78
2021/03/28 03:00:56;;;;;;;9.67;3.07;;;;;;;3.37;70.19;101864.59;5014946;28;20207;-78
2021/03/28 03:03:48;;;;;;;6.93;2.30;;;;;;;3.38;69.54;101866.34;5017756;28;20195;-79
2021/03/28 03:06:39;;;;;;;10.40;2.97;;;;;;;3.39;69.66;101863.69;5016369;28;20207;-79
2021/03/28 03:09:12;;;;;;;12.60;3.73;;;;;;;3.41;69.07;101861.00;5013771;28;20229;-79
2021/03/28 03:11:56;;;;;;;7.27;3.47;;;;;;;3.40;69.66;101849.59;5019401;28;20227;-80
2021/03/28 03:14:44;;;;;;;14.10;3.93;;;;;;;3.40;69.13;101849.59;5019453;28;20293;-80
2021/03/28 03:17:39;;;;;;;10.07;3.73;;;;;;;3.40;69.19;101851.41;5018974;28;20226;-78
2021/03/28 03:20:22;;;;;;;10.17;4.57;;;;;;;3.40;68.74;101854.03;5019821;28;20207;-78
2021/03/28 03:23:31;;;;;;;8.73;3.57;;;;;;;3.40;69.20;101849.59;5018351;28;20241;-78
2021/03/28 03:26:33;;;;;;;7.90;3.30;;;;;;;3.40;68.86;101831.19;5018560;28;20589;-79
2021/03/28 03:29:32;;;;;;;9.03;3.40;;;;;;;3.40;68.97;101839.06;5012208;28;20629;-78
2021/03/28 03:32:11;;;;;;;7.57;3.03;;;;;;;3.43;68.87;101839.03;5018966;28;20219;-79
2021/03/28 03:34:52;;;;;;;7.23;2.30;;;;;;;3.43;68.55;101836.41;5019947;28;20203;-79
2021/03/28 03:38:03;;;;;;;10.73;3.20;;;;;;;3.47;69.20;101835.47;5019363;28;20255;-79
2021/03/28 03:40:39;;;;;;;8.73;2.90;;;;;;;3.49;68.82;101849.47;5015441;28;20309;-80
2021/03/28 03:43:26;;;;;;;4.93;2.00;;;;;;;3.54;68.93;101852.06;5018277;28;20197;-76
2021/03/28 03:46:03;;;;;;;5.97;2.43;;;;;;;3.58;68.64;101858.16;5018139;28;20607;-78
2021/03/28 03:48:44;;;;;;;9.13;3.23;;;;;;;3.62;68.55;101859.81;5017670;28;20237;-76
2021/03/28 03:51:45;;;;;;;8.13;2.40;;;;;;;3.67;68.13;101858.00;5005742;28;20233;-76
2021/03/28 03:54:19;;;;;;;12.33;4.27;;;;;;;3.68;67.52;101855.34;4994189;28;20205;-78
2021/03/28 03:56:59;;;;;;;8.93;3.70;;;;;;;3.70;68.31;101853.56;5017947;28;20199;-77
2021/03/28 03:59:36;;;;;;;15.07;3.37;;;;;;;3.73;67.87;101857.91;5014956;28;20211;-78
2021/03/28 04:02:09;;;;;;;8.60;3.87;;;;;;;3.73;67.69;101847.38;5017510;28;20239;-78
2021/03/28 04:04:50;;;;;;;12.53;4.10;;;;;;;3.73;67.13;101858.78;5017847;28;20566;-77
2021/03/28 04:07:37;;;;;;;11.77;3.80;;;;;;;3.73;67.42;101857.91;5017221;28;20199;-78
2021/03/28 04:10:17;;;;;;;7.03;3.10;;;;;;;3.73;67.69;101855.28;5017542;28;20195;-78
2021/03/28 04:13:19;;;;;;;12.20;4.10;;;;;;;3.72;67.48;101851.78;5012098;28;20221;-76
2021/03/28 04:15:59;;;;;;;14.17;3.83;;;;;;;3.71;66.85;101843.88;4992031;28;20211;-78
2021/03/28 04:18:43;;;;;;;8.70;3.23;;;;;;;3.70;67.41;101852.69;5019106;28;20714;-77
2021/03/28 04:21:21;;;;;;;8.90;3.43;;;;;;;3.69;67.67;101851.81;5021386;28;20237;-78
2021/03/28 04:23:58;;;;;;;8.20;2.80;;;;;;;3.69;67.54;101851.81;5025225;28;20215;-80
2021/03/28 04:26:58;;;;;;;8.00;2.63;;;;;;;3.68;66.88;101862.38;5016558;28;20195;-79
2021/03/28 04:29:26;;;;;;;9.17;2.43;;;;;;;3.68;67.18;101852.72;5010587;28;20575;-77
2021/03/28 04:32:33;;;;;;;7.07;2.83;;;;;;;3.67;66.94;101843.06;5016462;28;20268;-79
2021/03/28 04:35:12;;;;;;;6.83;1.90;;;;;;;3.68;66.76;101852.72;5017581;28;20195;-78
2021/03/28 04:37:51;;;;;;;6.23;2.73;;;;;;;3.67;67.32;101850.97;5007540;28;20207;-80
2021/03/28 04:40:39;;;;;;;7.77;3.87;;;;;;;3.67;67.46;101845.69;5016632;28;20673;-78
2021/03/28 04:43:34;;;;;;;5.30;2.60;;;;;;;3.69;66.58;101856.22;5016601;28;20191;-78
2021/03/28 04:46:33;;;;;;;9.90;3.20;;;;;;;3.70;66.34;101852.69;5017583;28;20191;-77
2021/03/28 04:49:19;;;;;;;8.03;3.33;;;;;;;3.70;66.62;101848.28;5014356;28;20213;-77
2021/03/28 04:52:20;;;;;;;8.60;2.63;;;;;;;3.71;67.37;101846.53;5016425;28;20214;-75
2021/03/28 04:55:16;;;;;;;12.83;3.47;;;;;;;3.72;67.15;101851.78;5016811;28;20215;-79
2021/03/28 04:58:07;;;;;;;9.40;3.90;;;;;;;3.73;66.67;101842.09;5016690;28;20249;-76
2021/03/28 05:01:04;;;;;;;7.43;3.13;;;;;;;3.74;66.85;101838.56;5016669;28;20258;-77
2021/03/28 05:04:16;;;;;;;7.37;3.43;;;;;;;3.74;66.60;101852.63;5016958;28;20266;-79
2021/03/28 05:07:13;;;;;;;10.30;2.87;;;;;;;3.76;66.82;101853.44;5008180;28;20230;-79
2021/03/28 05:10:16;;;;;;;8.77;3.40;;;;;;;3.78;66.38;101841.13;5017755;28;20207;-77
2021/03/28 05:13:15;;;;;;;10.63;3.57;;;;;;;3.82;66.56;101848.06;5018946;28;20240;-77
2021/03/28 05:16:09;;;;;;;8.27;2.87;;;;;;;3.85;66.65;101852.44;5008176;28;20226;-77
2021/03/28 05:19:21;;;;;;;7.93;3.30;;;;;;;3.88;66.54;101846.25;5001354;28;20188;-78
2021/03/28 05:22:19;;;;;;;9.97;4.63;;;;;;;3.91;66.28;101839.16;5005897;28;20228;-79
2021/03/28 05:25:11;;;;;;;9.57;3.50;;;;;;;3.96;67.00;101839.06;5017751;28;20274;-78
2021/03/28 05:28:20;;;;;;;7.33;2.80;;;;;;;3.98;66.37;101838.16;5017361;28;20207;-78
2021/03/28 05:31:02;;;;;;;6.17;2.73;;;;;;;4.02;66.98;101838.97;4992742;28;20222;-78
2021/03/28 05:34:00;;;;;;;10.20;3.70;;;;;;;4.02;66.91;101839.84;5003481;28;20203;-79
2021/03/28 05:36:54;;;;;;;8.67;3.70;;;;;;;4.05;66.82;101839.78;5018088;28;20229;-78
2021/03/28 05:39:56;;;;;;;8.60;2.90;;;;;;;4.07;66.33;101838.00;5013704;28;20210;-79
2021/03/28 05:42:49;;;;;;;11.37;4.03;;;;;;;4.09;66.47;101825.66;4992073;28;20245;-78
2021/03/28 05:45:43;;;;;;;6.93;3.67;;;;;;;4.11;66.88;101830.91;5013834;28;20696;-78
2021/03/28 05:48:39;;;;;;;5.40;2.60;;;;;;;4.14;66.36;101836.97;5013372;28;20207;-79
2021/03/28 05:51:23;;;;;;;6.50;3.10;;;;;;;4.18;67.00;101829.88;5011400;28;20692;-78
2021/03/28 05:54:28;;;;;;;9.53;3.20;;;;;;;4.19;66.86;101837.78;5001470;28;20654;-79
2021/03/28 05:57:27;;;;;;;11.13;3.37;;;;;;;4.24;66.99;101829.78;5010477;28;20262;-78
2021/03/28 06:00:05;;;;;;;8.80;3.03;;;;;;;4.27;66.74;101837.66;5010057;28;20191;-77
2021/03/28 06:02:54;;;;;;;7.97;3.30;;;;;;;4.30;66.69;101842.00;5017159;28;20237;-79
2021/03/28 06:05:53;;;;;;;9.40;3.60;;;;;;;4.33;67.21;101839.28;5018644;28;20352;-79
2021/03/28 06:09:15;;;;;;;6.93;3.10;;;;;;;4.36;66.82;101839.22;5011432;28;20203;-79
2021/03/28 06:12:30;;;;;;;6.53;2.90;;;;;;;4.38;66.45;101847.97;5017028;28;20230;-79
2021/03/28 06:15:32;;;;;;;9.57;4.20;;;;;;;4.41;66.67;101848.81;5002828;28;20261;-78
2021/03/28 06:18:51;;;;;;;4.60;3.13;;;;;;;4.43;66.77;101844.38;5001641;28;20657;-77
2021/03/28 06:22:01;;;;;;;7.73;2.70;;;;;;;4.45;66.84;101845.22;5042137;22;20240;-65
2021/03/28 06:25:02;;;;;;;8.47;2.93;;;;;;;4.48;66.72;101853.03;5026697;28;20698;-64
2021/03/28 06:27:55;;;;;;;9.43;3.03;;;;;;;4.51;66.71;101863.53;5007596;28;20624;-65
2021/03/28 06:31:11;;;;;;;5.63;2.87;;;;;;;4.53;67.04;101858.25;5006028;28;20203;-65
2021/03/28 06:34:15;;;;;;;8.07;3.00;;;;;;;4.58;67.58;101869.59;5008796;28;20214;-65
2021/03/28 06:37:27;;;;;;;8.97;2.90;;;;;;;4.66;67.03;101865.00;5049849;22;20234;-65
2021/03/28 06:40:07;;;;;;;7.77;2.90;;;;;;;4.71;67.50;101857.88;5026621;28;20259;-68
2021/03/28 06:43:03;;;;;;;8.13;3.10;;;;;;;4.75;67.57;101862.19;5024149;28;20202;-66
2021/03/28 06:45:41;;;;;;;6.63;3.03;;;;;;;4.78;67.12;101856.88;5033233;28;20280;-67
2021/03/28 06:48:49;;;;;;;5.07;2.47;;;;;;;4.82;67.58;101857.69;5027222;28;20571;-67
2021/03/28 06:51:37;;;;;;;5.40;2.50;;;;;;;4.86;67.66;101862.84;5022089;28;20748;-67
2021/03/28 06:54:38;;;;;;;6.07;2.40;;;;;;;4.89;67.49;101854.00;5029186;28;20198;-67
2021/03/28 06:57:36;;;;;;;13.30;3.27;;;;;;;4.99;67.49;101859.97;5022902;28;20651;-67
2021/03/28 07:00:28;;;;;;;7.27;3.20;;;;;;;5.11;67.92;101849.13;5024485;28;20203;-67
2021/03/28 07:03:27;;;;;;;7.93;2.87;;;;;;;5.24;67.13;101862.03;5021454;28;20237;-67
2021/03/28 07:06:03;;;;;;;6.60;2.43;;;;;;;5.36;67.38;101868.84;5018527;28;20226;-66
2021/03/28 07:08:55;;;;;;;8.60;3.63;;;;;;;5.49;67.03;101859.72;5021103;28;20219;-66
2021/03/28 07:11:53;;;;;;;8.20;3.30;;;;;;;5.64;67.05;101862.91;5018484;28;20195;-68
2021/03/28 07:15:07;;;;;;;6.50;3.03;;;;;;;5.74;66.49;101864.41;5018815;28;20212;-65
2021/03/28 07:18:12;;;;;;;5.03;2.70;;;;;;;5.80;66.08;101858.97;5016922;28;20520;-65
2021/03/28 07:20:52;;;;;;;5.63;2.47;;;;;;;5.84;65.81;101855.38;5026395;28;20230;-67
2021/03/28 07:23:51;;;;;;;7.50;2.73;;;;;;;5.85;66.08;101844.75;5019420;28;20206;-66
2021/03/28 07:26:34;;;;;;;9.07;2.63;;;;;;;5.91;66.06;101846.41;5027409;28;20928;-67
2021/03/28 07:29:53;;;;;;;7.10;2.63;;;;;;;5.99;65.82;101854.16;5021570;28;20198;-66
2021/03/28 07:32:40;;;;;;;5.50;2.37;;;;;;;6.06;65.67;101845.16;5027855;28;20209;-67
2021/03/28 07:35:37;;;;;;;7.63;2.40;;;;;;;6.12;65.62;101842.34;5024306;28;20738;-65
2021/03/28 07:38:43;;;;;;;5.73;2.53;;;;;;;6.18;65.42;101840.41;5017136;28;20625;-67
2021/03/28 07:41:44;;;;;;;7.70;2.83;;;;;;;6.26;65.36;101846.38;5017976;28;20735;-65
2021/03/28 07:44:56;;;;;;;8.03;2.53;;;;;;;6.34;65.42;101842.66;5013948;28;20206;-67
2021/03/28 07:48:00;;;;;;;5.93;2.23;;;;;;;6.43;65.27;101845.94;5023300;28;20611;-67
2021/03/28 07:50:49;;;;;;;7.63;2.63;;;;;;;6.55;65.46;101842.94;5021667;28;20224;-67
2021/03/28 07:53:38;;;;;;;9.93;2.33;;;;;;;6.70;65.32;101838.97;5028501;28;20214;-66
2021/03/28 07:56:25;;;;;;;9.63;3.17;;;;;;;6.84;65.28;101842.09;5015115;28;20234;-66
2021/03/28 07:59:00;;;;;;;4.07;1.93;;;;;;;6.96;64.43;101838.25;5022996;28;20198;-67
2021/03/28 08:01:59;;;;;;;5.20;1.93;;;;;;;7.04;64.07;101838.88;5029829;28;20232;-65
2021/03/28 08:05:13;;;;;;;9.07;2.60;;;;;;;7.07;63.53;101849.38;5031205;28;20202;-66
2021/03/28 08:07:52;;;;;;;8.33;2.77;;;;;;;7.19;63.91;101841.06;4986735;28;20220;-66
2021/03/28 08:10:41;;;;;;;6.57;3.27;;;;;;;7.34;63.96;101842.38;5031309;28;20221;-66
2021/03/28 08:13:30;;;;;;;5.73;2.40;;;;;;;7.45;63.65;101848.22;5031503;28;20289;-67
2021/03/28 08:16:17;;;;;;;3.17;2.30;;;;;;;7.54;63.09;101850.56;5026515;28;20219;-67
2021/03/28 08:19:01;;;;;;;6.83;2.23;;;;;;;7.58;63.18;101857.50;5029676;28;20761;-66
2021/03/28 08:21:37;;;;;;;6.77;2.50;;;;;;;7.63;63.42;101854.72;5023554;28;20223;-66
2021/03/28 08:24:43;;;;;;;7.20;2.40;;;;;;;7.69;63.01;101865.13;5019357;28;20669;-66
2021/03/28 08:27:42;;;;;;;6.30;2.07;;;;;;;7.74;62.62;101862.31;5023547;28;20229;-66
2021/03/28 08:30:28;;;;;;;8.83;2.67;;;;;;;7.74;62.67;101871.13;5019160;28;20212;-65
2021/03/28 08:33:17;;;;;;;7.03;2.70;;;;;;;7.75;62.46;101864.06;5016988;28;20252;-65
2021/03/28 08:35:59;;;;;;;7.20;2.77;;;;;;;7.77;62.72;101859.56;5019992;28;20238;-65
2021/03/28 08:38:44;;;;;;;7.30;1.90;;;;;;;7.82;62.53;101863.81;5021225;28;20885;-65
2021/03/28 08:41:29;;;;;;;5.40;2.03;;;;;;;7.87;62.54;101856.59;5028918;28;20214;-65
2021/03/28 08:44:33;;;;;;;6.53;2.43;;;;;;;7.92;62.94;101859.06;5027725;28;20206;-66
2021/03/28 08:47:24;;;;;;;4.30;2.37;;;;;;;7.95;62.71;101857.19;5017606;28;20625;-67
2021/03/28 08:49:57;;;;;;;5.73;2.20;;;;;;;7.99;62.92;101852.66;4995615;28;20668;-66
2021/03/28 08:52:55;;;;;;;6.03;2.63;;;;;;;8.01;62.60;101850.81;5019239;28;20206;-65
2021/03/28 08:55:44;;;;;;;5.17;2.30;;;;;;;8.06;62.92;101846.19;5025274;28;20723;-66
2021/03/28 08:58:21;;;;;;;6.27;2.10;;;;;;;8.15;63.35;101845.03;5021785;28;20594;-66
2021/03/28 09:00:58;;;;;;;5.97;2.50;;;;;;;8.26;62.99;101856.13;5021714;28;20304;-66
2021/03/28 09:04:04;;;;;;;8.83;2.47;;;;;;;8.41;62.91;101853.00;5039271;28;20289;-66
2021/03/28 09:06:49;;;;;;;5.90;1.97;;;;;;;8.51;62.41;101856.19;5029819;28;20222;-66
2021/03/28 09:09:39;;;;;;;7.33;2.43;;;;;;;8.60;62.49;101853.19;5024083;28;20218;-66
2021/03/28 09:12:18;;;;;;;15.83;2.60;;;;;;;8.69;62.72;101853.72;5019156;28;20199;-66
2021/03/28 09:15:12;;;;;;;4.60;1.83;;;;;;;8.78;62.08;101857.00;5023954;28;20245;-66
2021/03/28 09:17:50;;;;;;;12.80;2.20;;;;;;;8.85;61.64;101853.16;5021035;28;20211;-66
2021/03/28 09:20:35;;;;;;;7.23;2.10;;;;;;;8.91;61.21;101855.59;5022371;28;20213;-65
2021/03/28 09:23:28;;;;;;;6.20;2.13;;;;;;;8.96;61.40;101856.28;5016887;28;20341;-65
2021/03/28 09:26:01;;;;;;;6.30;2.10;;;;;;;9.01;61.23;101852.53;5021216;28;20226;-66
2021/03/28 09:28:45;;;;;;;3.63;1.70;;;;;;;9.09;61.02;101859.38;5017039;28;20199;-65
2021/03/28 09:31:18;;;;;;;3.87;1.80;;;;;;;9.17;61.26;101857.25;5016848;28;20206;-66
2021/03/28 09:34:01;;;;;;;4.60;1.80;;;;;;;9.21;60.72;101858.88;5021832;28;20202;-66
2021/03/28 09:36:47;;;;;;;9.00;3.07;;;;;;;9.28;60.30;101855.94;5022014;28;20235;-66
2021/03/28 09:39:27;;;;;;;6.67;2.10;;;;;;;9.37;60.93;101847.59;5017846;28;20216;-66
2021/03/28 09:42:31;;;;;;;6.73;1.77;;;;;;;9.44;60.44;101853.56;5016268;28;20222;-65
2021/03/28 09:45:45;;;;;;;6.00;1.90;;;;;;;9.46;59.98;101854.34;5014216;28;20267;-65
2021/03/28 09:48:28;;;;;;;7.27;1.93;;;;;;;9.47;59.28;101848.13;5012862;28;20207;-65
2021/03/28 09:51:02;;;;;;;4.83;1.97;;;;;;;9.49;59.59;101848.06;5012921;28;20194;-65
2021/03/28 09:53:44;;;;;;;11.13;2.90;;;;;;;9.50;59.15;101844.44;5014054;28;20333;-65
2021/03/28 09:56:39;;;;;;;8.77;3.20;;;;;;;9.55;59.88;101839.81;5015796;28;20326;-66
2021/03/28 09:59:23;;;;;;;5.77;2.40;;;;;;;9.57;59.96;101849.47;5014415;28;20214;-65
2021/03/28 10:01:58;;;;;;;6.57;2.07;;;;;;;9.60;59.74;101852.00;5018002;28;20236;-65
2021/03/28 10:04:48;;;;;;;12.87;4.00;;;;;;;9.59;59.74;101844.97;5017892;28;20194;-66
2021/03/28 10:07:22;;;;;;;6.33;1.90;;;;;;;9.65;59.50;101834.09;5020919;28;20215;-65
2021/03/28 10:10:02;;;;;;;4.47;2.13;;;;;;;9.72;59.08;101846.19;5017125;28;20202;-66
2021/03/28 10:12:36;;;;;;;3.47;2.00;;;;;;;9.80;59.41;101853.88;5018471;28;20209;-67
2021/03/28 10:15:07;;;;;;;4.90;1.97;;;;;;;9.88;59.82;101834.91;5023135;28;20222;-63
2021/03/28 10:17:44;;;;;;;5.53;2.50;;;;;;;9.93;59.18;101828.47;5017910;28;20230;-67
2021/03/28 10:20:41;;;;;;;6.83;1.90;;;;;;;10.01;59.31;101834.34;5021634;28;20218;-66
2021/03/28 10:23:23;;;;;;;7.07;1.80;;;;;;;10.09;58.75;101826.88;5023245;28;20217;-67
2021/03/28 10:26:04;;;;;;;6.47;1.90;;;;;;;10.18;59.09;101822.97;5022278;28;20605;-65
2021/03/28 10:29:00;;;;;;;6.63;2.33;;;;;;;10.28;58.80;101821.66;5025173;28;20202;-66
2021/03/28 10:31:36;;;;;;;6.17;1.90;;;;;;;10.36;58.75;101818.69;5025468;28;20206;-67
2021/03/28 10:34:17;;;;;;;5.57;1.97;;;;;;;10.42;58.38;101821.94;5023613;28;20234;-67
2021/03/28 10:36:58;;;;;;;3.87;1.87;;;;;;;10.48;58.26;101823.47;5027606;28;20742;-66
2021/03/28 10:39:47;;;;;;;5.30;1.63;;;;;;;10.54;58.30;101811.69;5026210;28;20206;-65
2021/03/28 10:42:45;;;;;;;12.73;5.43;;;;;;;10.61;57.69;101807.78;5024944;28;20229;-66
2021/03/28 10:45:41;;;;;;;7.73;3.40;;;;;;;10.71;57.83;101809.13;5011406;28;20715;-66
2021/03/28 10:48:48;;;;;;;11.50;6.00;;;;;;;10.80;57.22;101808.69;5019938;28;20218;-66
2021/03/28 10:51:54;;;;;;;7.03;1.97;;;;;;;10.85;56.84;101797.81;5024847;28;20202;-66
2021/03/28 10:55:01;;;;;;;7.17;2.13;;;;;;;10.89;56.67;101794.97;5005763;28;20206;-66
2021/03/28 10:58:05;;;;;;;6.23;2.00;;;;;;;10.99;57.25;101788.25;5022213;28;20293;-67
2021/03/28 11:01:02;;;;;;;6.77;1.73;;;;;;;11.07;56.81;101786.09;5036758;28;20205;-66
2021/03/28 11:04:03;;;;;;;5.43;1.90;;;;;;;11.24;56.69;101779.09;5025374;28;20675;-66
2021/03/28 11:06:47;;;;;;;4.43;1.93;;;;;;;11.41;56.64;101774.66;5020288;28;20320;-67
2021/03/28 11:09:36;;;;;;;6.63;1.90;;;;;;;11.56;55.00;101758.84;5023351;28;20579;-67
2021/03/28 11:12:18;;;;;;;5.37;1.93;;;;;;;11.63;55.12;101753.13;5029566;28;20644;-67
2021/03/28 11:14:58;;;;;;;4.80;2.30;;;;;;;11.70;54.59;101761.66;5029081;28;20229;-67
2021/03/28 11:17:53;;;;;;;3.77;1.63;;;;;;;11.85;54.68;101755.59;5032032;28;20214;-66
2021/03/28 11:20:26;;;;;;;4.27;1.80;;;;;;;12.01;54.09;101750.31;5033918;28;20221;-66
2021/03/28 11:23:38;;;;;;;3.83;1.70;;;;;;;12.04;52.55;101752.84;5027861;28;20317;-66
2021/03/28 11:26:43;;;;;;;3.43;1.80;;;;;;;12.12;52.52;101748.84;5022250;28;20238;-66
2021/03/28 11:29:44;;;;;;;6.03;1.83;;;;;;;12.23;52.30;101742.91;5001843;28;20233;-66
2021/03/28 11:32:21;;;;;;;7.40;2.30;;;;;;;12.32;52.06;101745.13;5027954;28;20197;-65
2021/03/28 11:35:02;;;;;;;4.17;2.43;;;;;;;12.43;51.83;101740.06;5025920;28;20226;-66
2021/03/28 11:37:40;;;;;;;3.27;2.00;;;;;;;12.56;52.08;101748.25;5022619;28;20610;-67
2021/03/28 11:40:25;;;;;;;5.27;2.00;;;;;;;12.66;51.49;101738.81;5021565;28;20198;-67
2021/03/28 11:43:13;;;;;;;4.97;2.30;;;;;;;12.80;51.57;101730.03;5018243;28;20277;-68
2021/03/28 11:45:42;;;;;;;5.83;2.40;;;;;;;12.90;50.47;101741.91;5020902;28;20237;-67
2021/03/28 11:48:24;;;;;;;4.53;2.07;;;;;;;13.00;50.68;101726.25;5019206;28;20293;-67
2021/03/28 11:50:53;;;;;;;3.90;1.80;;;;;;;13.09;50.11;101729.25;5023355;28;20256;-65
2021/03/28 11:53:30;;;;;;;4.80;2.60;;;;;;;13.17;49.27;101734.22;5022212;28;20243;-67
2021/03/28 11:55:58;;;;;;;5.10;2.17;;;;;;;13.17;48.83;101736.88;5024434;28;20227;-64
2021/03/28 11:58:30;;;;;;;6.80;2.30;;;;;;;13.11;47.97;101729.16;5025243;28;20321;-67
2021/03/28 12:00:57;;;;;;;6.00;1.87;;;;;;;13.11;48.75;101732.69;5018746;28;20230;-67
2021/03/28 12:03:31;;;;;;;4.43;2.00;;;;;;;13.16;48.24;101733.34;5016714;28;20227;-67
2021/03/28 12:06:02;;;;;;;4.70;1.70;;;;;;;13.16;48.00;101729.81;5017152;28;20270;-67
2021/03/28 12:08:30;;;;;;;6.67;1.90;;;;;;;13.17;47.96;101712.81;5020121;28;20203;-67
2021/03/28 12:11:42;;;;;;;3.93;1.73;;;;;;;13.16;48.43;101717.28;5020607;28;20198;-67
2021/03/28 12:14:24;;;;;;;4.50;1.90;;;;;;;13.19;48.00;101714.44;5019462;28;20212;-66
2021/03/28 12:17:28;;;;;;;5.47;1.17;;;;;;;13.23;47.56;101725.84;5017880;28;20257;-66
2021/03/28 12:20:16;;;;;;;4.27;1.57;;;;;;;13.24;46.56;101708.84;4993889;28;20264;-67
2021/03/28 12:22:55;;;;;;;3.30;1.73;;;;;;;13.24;45.90;101726.72;5029309;28;20600;-66
2021/03/28 12:25:30;;;;;;;2.57;1.10;;;;;;;13.24;45.55;101719.53;5020248;28;20229;-67
2021/03/28 12:28:26;;;;;;;3.00;1.13;;;;;;;13.26;45.54;101703.38;5016777;28;20220;-67
2021/03/28 12:30:53;;;;;;;3.00;0.90;;;;;;;13.25;45.05;101699.88;5010583;28;20293;-67
2021/03/28 12:33:21;;;;;;;6.97;1.57;;;;;;;13.24;44.75;101706.16;5021118;28;20215;-65
2021/03/28 12:36:04;;;;;;;4.30;1.40;;;;;;;13.27;44.96;101707.78;5049103;22;20230;-65
2021/03/28 12:38:53;;;;;;;3.50;1.70;;;;;;;13.30;44.94;101710.28;5020909;28;20206;-65
2021/03/28 12:41:27;;;;;;;3.97;1.07;;;;;;;13.32;44.85;101717.28;5026417;28;20663;-66
2021/03/28 12:43:57;;;;;;;6.20;1.40;;;;;;;13.31;44.58;101718.22;5026177;28;20581;-66
2021/03/28 12:46:55;;;;;;;3.77;1.60;;;;;;;13.34;45.05;101706.47;5009950;28;20276;-64
2021/03/28 12:49:27;;;;;;;6.50;1.60;;;;;;;13.35;45.14;101713.56;4998660;28;20262;-65
2021/03/28 12:52:03;;;;;;;3.60;1.63;;;;;;;13.34;44.83;101722.53;5007091;28;20199;-66
2021/03/28 12:54:33;;;;;;;4.27;1.60;;;;;;;13.31;44.86;101717.34;4994936;28;20207;-65
2021/03/28 12:57:03;;;;;;;5.50;2.03;;;;;;;13.29;45.13;101716.56;4995201;28;20253;-66
2021/03/28 12:59:33;;;;;;;3.60;1.30;;;;;;;13.30;45.23;101711.16;4995490;28;20820;-65